createdAt,value
2019-05-16T00:00:08.396Z,52.10
2019-05-16T00:03:07.892Z,52.10
2019-05-16T00:06:15.012Z,52.10
2019-05-16T00:09:10.795Z,52.20
2019-05-16T00:12:25.032Z,52.10
2019-05-16T00:15:30.789Z,52.00
2019-05-16T00:18:38.866Z,52.40
2019-05-16T00:21:24.025Z,52.10
2019-05-16T00:24:18.644Z,52.10
2019-05-16T00:27:14.593Z,52.20
2019-05-16T00:30:08.776Z,52.20
2019-05-16T00:33:12.945Z,52.30
2019-05-16T00:36:06.148Z,52.10
2019-05-16T00:38:51.623Z,52.10
2019-05-16T00:41:39.097Z,52.80
2019-05-16T00:44:28.141Z,52.20
2019-05-16T00:47:17.897Z,52.20
2019-05-16T00:50:08.704Z,52.30
2019-05-16T00:52:56.155Z,52.30
2019-05-16T00:55:43.172Z,52.30
2019-05-16T00:58:31.273Z,52.20
2019-05-16T01:01:20.768Z,52.40
2019-05-16T01:04:13.117Z,52.20
2019-05-16T01:07:04.710Z,52.30
2019-05-16T01:09:55.279Z,52.30
2019-05-16T01:12:45.222Z,52.30
2019-05-16T01:15:34.134Z,52.30
2019-05-16T01:18:22.577Z,52.30
2019-05-16T01:21:11.453Z,52.20
2019-05-16T01:24:01.818Z,52.30
2019-05-16T01:26:49.109Z,52.30
2019-05-16T01:29:42.115Z,52.40
2019-05-16T01:32:33.569Z,52.40
2019-05-16T01:35:22.830Z,52.50
2019-05-16T01:38:13.031Z,52.40
2019-05-16T01:41:00.461Z,52.40
2019-05-16T01:43:50.297Z,52.60
2019-05-16T01:46:39.126Z,52.50
2019-05-16T01:49:28.249Z,52.50
2019-05-16T01:52:17.885Z,52.40
2019-05-16T01:55:08.723Z,52.40
2019-05-16T01:58:00.250Z,52.40
2019-05-16T02:01:02.371Z,52.50
2019-05-16T02:03:41.850Z,52.60
2019-05-16T02:06:31.662Z,52.50
2019-05-16T02:09:19.971Z,52.60
2019-05-16T02:12:10.423Z,52.60
2019-05-16T02:15:18.393Z,52.50
2019-05-16T02:18:01.024Z,52.50
2019-05-16T02:20:51.048Z,52.50
2019-05-16T02:23:40.378Z,52.50
2019-05-16T02:26:31.085Z,52.60
2019-05-16T02:29:25.290Z,52.50
2019-05-16T02:32:22.498Z,52.50
2019-05-16T02:36:01.774Z,52.50
2019-05-16T02:39:30.558Z,52.50
2019-05-16T02:56:21.509Z,52.70
2019-05-16T03:00:42.414Z,52.70
2019-05-16T03:04:25.809Z,52.70
2019-05-16T03:16:31.567Z,52.70
2019-05-16T03:19:44.729Z,52.70
2019-05-16T03:22:56.665Z,52.90
2019-05-16T03:26:05.969Z,52.90
2019-05-16T03:30:34.172Z,52.80
2019-05-16T03:38:43.762Z,53.10
2019-05-16T03:42:25.831Z,53.00
2019-05-16T03:46:24.086Z,53.00
2019-05-16T03:49:36.184Z,53.20
2019-05-16T03:52:23.510Z,53.00
2019-05-16T03:55:11.888Z,53.10
2019-05-16T03:58:30.787Z,53.10
2019-05-16T04:01:14.524Z,53.20
2019-05-16T04:04:03.442Z,53.20
2019-05-16T04:07:02.800Z,53.30
2019-05-16T04:09:50.787Z,53.20
2019-05-16T04:12:41.461Z,53.20
2019-05-16T04:15:26.356Z,53.40
2019-05-16T04:18:13.554Z,53.40
2019-05-16T04:21:02.130Z,53.20
2019-05-16T04:23:50.627Z,53.40
2019-05-16T04:26:40.923Z,53.50
2019-05-16T04:29:27.512Z,53.60
2019-05-16T04:32:14.329Z,53.70
2019-05-16T04:35:02.655Z,53.70
2019-05-16T04:37:51.322Z,53.80
2019-05-16T04:40:51.695Z,54.30
2019-05-16T04:43:44.955Z,53.70
2019-05-16T04:47:02.535Z,54.00
2019-05-16T04:49:33.075Z,53.90
2019-05-16T04:52:31.355Z,53.90
2019-05-16T04:55:32.667Z,54.00
2019-05-16T04:58:23.320Z,54.00
2019-05-16T05:01:11.237Z,54.10
2019-05-16T05:04:23.830Z,54.10
2019-05-16T05:07:20.420Z,54.50
2019-05-16T05:10:11.533Z,54.00
2019-05-16T05:13:07.487Z,54.20
2019-05-16T05:16:10.765Z,54.20
2019-05-16T05:19:00.352Z,54.20
2019-05-16T05:25:35.384Z,54.20
2019-05-16T05:28:25.776Z,54.30
2019-05-16T05:31:14.830Z,54.20
2019-05-16T05:34:42.654Z,55.00
2019-05-16T05:37:34.528Z,54.30
2019-05-16T05:40:35.073Z,54.30
2019-05-16T05:43:21.612Z,54.40
2019-05-16T05:50:52.652Z,54.40
2019-05-16T05:53:40.220Z,54.50
2019-05-16T06:27:07.208Z,54.80
2019-05-16T06:30:31.771Z,54.70
2019-05-16T06:38:35.148Z,54.70
2019-05-16T08:01:39.848Z,55.50
2019-05-16T08:04:27.061Z,55.60
2019-05-16T08:07:13.934Z,55.50
2019-05-16T08:10:11.347Z,55.50
2019-05-16T08:13:03.396Z,55.50
2019-05-16T08:15:54.633Z,55.50
2019-05-16T08:18:45.186Z,55.60
2019-05-16T08:21:31.061Z,55.60
2019-05-16T08:24:20.314Z,55.60
2019-05-16T08:27:06.159Z,55.60
2019-05-16T08:29:54.110Z,55.60
2019-05-16T08:32:42.016Z,55.50
2019-05-16T08:35:31.587Z,55.50
2019-05-16T08:38:21.401Z,55.50
2019-05-16T08:41:14.320Z,55.50
2019-05-16T08:43:56.378Z,55.50
2019-05-16T08:46:53.167Z,55.40
2019-05-16T08:49:34.111Z,55.40
2019-05-16T08:52:22.334Z,55.40
2019-05-16T08:55:12.589Z,55.20
2019-05-16T08:57:58.272Z,55.00
2019-05-16T09:00:46.573Z,54.90
2019-05-16T09:03:33.583Z,54.90
2019-05-16T09:06:23.501Z,54.80
2019-05-16T09:09:27.048Z,54.90
2019-05-16T09:11:57.618Z,54.80
2019-05-16T09:14:47.820Z,54.70
2019-05-16T09:17:38.931Z,54.80
2019-05-16T09:20:29.599Z,54.70
2019-05-16T09:23:18.036Z,54.80
2019-05-16T09:26:07.248Z,54.80
2019-05-16T09:28:53.018Z,54.80
2019-05-16T09:31:39.531Z,54.80
2019-05-16T09:34:28.312Z,54.70
2019-05-16T09:37:21.161Z,54.80
2019-05-16T09:40:09.832Z,54.80
2019-05-16T09:43:00.410Z,54.70
2019-05-16T09:46:02.899Z,54.70
2019-05-16T09:59:43.135Z,54.70
2019-05-16T10:02:36.884Z,54.60
2019-05-16T10:09:18.592Z,54.50
2019-05-16T10:12:15.221Z,54.40
2019-05-16T10:14:59.974Z,54.20
2019-05-16T10:17:59.630Z,54.00
2019-05-16T12:03:59.914Z,53.70
2019-05-16T12:29:59.076Z,53.30
2019-05-16T12:39:47.044Z,53.20
2019-05-16T15:39:42.895Z,52.10
